BIENTÔT MET'MAP
version 2.0 !

Prévue avant fin octobre,
la nouvelle version sera
plus belle, plus complète
et hébergée sur un serveur
3 fois plus puissant...
et toujours gratuite !


Pas compatible ?
Essayez la version Mobile !

SE CONNECTER : | S'inscrire | Disclaimer | Découvrir Orbifly |
Code OACI :
Lgende : VFR VFR Marginal IFR IFR Intensif IFR Trs Intensif
Visi :
Plafond :
>= 8 km
>= 3000ft
5 8 km
1000 3000 ft
1500m 5 km
500 1000 ft
800 1500m
200 500 ft
< 800m
< 200 ft

METAR - DTTB Sidi Ahmed Air Base - 10 Apr 2020 05:58 UTC - Data Source NOAA   


- Altitude de l'aérodrome : 20 ft
- Code IATA : OIZ
- Pas de NOTAMs connus.


DTTB - Sidi Ahmed Air Base

Dernier METAR connu : 2015/08/11 08:00 DTTB 110800Z 28015KT 250V310 9999 SCT020 27/20 Q1012
TAF TAF DTTB
Valide du 10 à 04h jusqu'au 10 à 13h UTC


100300Z 1004/1013 05004KT CAVOK
PROB40
TEMPO 1005/1008 2000 BR FEW014

Source NOAA


MET'MAP, la Météo Aéronautique d'un coup d'oeil ! - Copyright ORBIFLY Décembre 2007

Développement & Programmation : Alexandra Zaïnal
Co-Développement : Marc-Olivier Méhu
Soutien technique & logistique : Manuel Goepfert
Conception & Financement : Baudouin d'Aumeries